sensor_id;sensor_type;location;lat;lon;timestamp;P1;durP1;ratioP1;P2;durP2;ratioP2
32872;SDS011;19224;52.462;16.898;2023-06-10T00:02:23;12.98;;;7.28;;
32872;SDS011;19224;52.462;16.898;2023-06-10T00:04:55;11.53;;;7.08;;
32872;SDS011;19224;52.462;16.898;2023-06-10T00:07:26;12.78;;;7.55;;
32872;SDS011;19224;52.462;16.898;2023-06-10T00:09:56;13.10;;;8.05;;
32872;SDS011;19224;52.462;16.898;2023-06-10T00:12:27;9.33;;;6.97;;
32872;SDS011;19224;52.462;16.898;2023-06-10T00:14:58;9.25;;;6.90;;
32872;SDS011;19224;52.462;16.898;2023-06-10T00:17:29;9.65;;;6.83;;
32872;SDS011;19224;52.462;16.898;2023-06-10T00:20:00;9.20;;;7.05;;
32872;SDS011;19224;52.462;16.898;2023-06-10T00:22:32;12.55;;;7.42;;
32872;SDS011;19224;52.462;16.898;2023-06-10T00:25:03;10.23;;;7.30;;
32872;SDS011;19224;52.462;16.898;2023-06-10T00:27:35;12.53;;;6.78;;
32872;SDS011;19224;52.462;16.898;2023-06-10T00:30:06;11.33;;;6.47;;
32872;SDS011;19224;52.462;16.898;2023-06-10T00:32:37;11.43;;;7.30;;
32872;SDS011;19224;52.462;16.898;2023-06-10T00:35:08;11.83;;;6.20;;
32872;SDS011;19224;52.462;16.898;2023-06-10T00:37:38;9.50;;;6.55;;
32872;SDS011;19224;52.462;16.898;2023-06-10T00:40:09;11.93;;;6.58;;
32872;SDS011;19224;52.462;16.898;2023-06-10T00:42:40;13.43;;;7.22;;
32872;SDS011;19224;52.462;16.898;2023-06-10T00:45:10;10.95;;;7.05;;
32872;SDS011;19224;52.462;16.898;2023-06-10T00:47:40;10.75;;;6.80;;
32872;SDS011;19224;52.462;16.898;2023-06-10T00:50:11;9.33;;;6.65;;
32872;SDS011;19224;52.462;16.898;2023-06-10T00:52:41;15.38;;;7.00;;
32872;SDS011;19224;52.462;16.898;2023-06-10T00:55:15;13.15;;;6.37;;
32872;SDS011;19224;52.462;16.898;2023-06-10T00:57:46;9.85;;;6.40;;
32872;SDS011;19224;52.462;16.898;2023-06-10T01:00:18;12.58;;;6.40;;
32872;SDS011;19224;52.462;16.898;2023-06-10T01:02:48;12.75;;;6.75;;
32872;SDS011;19224;52.462;16.898;2023-06-10T01:05:21;14.60;;;6.45;;
32872;SDS011;19224;52.462;16.898;2023-06-10T01:10:47;10.25;;;6.60;;
32872;SDS011;19224;52.462;16.898;2023-06-10T01:13:24;12.65;;;6.53;;
32872;SDS011;19224;52.462;16.898;2023-06-10T01:15:57;15.55;;;6.40;;
32872;SDS011;19224;52.462;16.898;2023-06-10T01:18:31;12.63;;;6.58;;
32872;SDS011;19224;52.462;16.898;2023-06-10T01:21:01;9.60;;;5.92;;
32872;SDS011;19224;52.462;16.898;2023-06-10T01:23:32;13.72;;;6.50;;
32872;SDS011;19224;52.462;16.898;2023-06-10T01:26:03;12.23;;;5.85;;
32872;SDS011;19224;52.462;16.898;2023-06-10T01:28:44;10.98;;;6.40;;
32872;SDS011;19224;52.462;16.898;2023-06-10T01:34:13;11.63;;;6.42;;
32872;SDS011;19224;52.462;16.898;2023-06-10T01:36:48;12.95;;;7.05;;
32872;SDS011;19224;52.462;16.898;2023-06-10T01:39:20;8.55;;;5.72;;
32872;SDS011;19224;52.462;16.898;2023-06-10T01:41:53;14.33;;;6.60;;
32872;SDS011;19224;52.462;16.898;2023-06-10T01:44:25;12.93;;;6.08;;
32872;SDS011;19224;52.462;16.898;2023-06-10T01:46:55;9.80;;;6.17;;
32872;SDS011;19224;52.462;16.898;2023-06-10T01:49:26;18.65;;;6.50;;
32872;SDS011;19224;52.462;16.898;2023-06-10T01:51:56;10.53;;;6.15;;
32872;SDS011;19224;52.462;16.898;2023-06-10T01:54:26;14.80;;;6.42;;
32872;SDS011;19224;52.462;16.898;2023-06-10T01:56:57;15.65;;;6.85;;
32872;SDS011;19224;52.462;16.898;2023-06-10T01:59:27;10.20;;;6.40;;
32872;SDS011;19224;52.462;16.898;2023-06-10T02:01:58;10.03;;;6.60;;
32872;SDS011;19224;52.462;16.898;2023-06-10T02:04:28;9.25;;;6.22;;
32872;SDS011;19224;52.462;16.898;2023-06-10T02:06:59;11.38;;;6.40;;
32872;SDS011;19224;52.462;16.898;2023-06-10T02:09:31;11.93;;;6.12;;
32872;SDS011;19224;52.462;16.898;2023-06-10T02:12:03;13.68;;;6.25;;
32872;SDS011;19224;52.462;16.898;2023-06-10T02:14:34;13.30;;;6.30;;
32872;SDS011;19224;52.462;16.898;2023-06-10T02:17:05;13.62;;;6.58;;
32872;SDS011;19224;52.462;16.898;2023-06-10T02:19:37;9.60;;;6.08;;
32872;SDS011;19224;52.462;16.898;2023-06-10T02:22:09;13.28;;;6.17;;
32872;SDS011;19224;52.462;16.898;2023-06-10T02:24:39;10.08;;;5.87;;
32872;SDS011;19224;52.462;16.898;2023-06-10T02:27:10;13.83;;;6.47;;
32872;SDS011;19224;52.462;16.898;2023-06-10T02:29:40;13.80;;;6.22;;
32872;SDS011;19224;52.462;16.898;2023-06-10T02:32:11;9.50;;;6.53;;
32872;SDS011;19224;52.462;16.898;2023-06-10T02:34:42;10.75;;;6.37;;
32872;SDS011;19224;52.462;16.898;2023-06-10T02:37:13;10.95;;;6.33;;
32872;SDS011;19224;52.462;16.898;2023-06-10T02:39:45;11.55;;;6.55;;
32872;SDS011;19224;52.462;16.898;2023-06-10T02:42:15;12.55;;;6.50;;
32872;SDS011;19224;52.462;16.898;2023-06-10T02:44:45;9.48;;;5.97;;
32872;SDS011;19224;52.462;16.898;2023-06-10T02:47:15;10.00;;;7.12;;
32872;SDS011;19224;52.462;16.898;2023-06-10T02:49:46;8.88;;;6.05;;
32872;SDS011;19224;52.462;16.898;2023-06-10T02:52:16;10.68;;;6.12;;
32872;SDS011;19224;52.462;16.898;2023-06-10T02:54:46;10.63;;;6.78;;
32872;SDS011;19224;52.462;16.898;2023-06-10T02:57:17;8.90;;;6.28;;
32872;SDS011;19224;52.462;16.898;2023-06-10T02:59:47;11.83;;;6.50;;
32872;SDS011;19224;52.462;16.898;2023-06-10T03:02:19;10.93;;;6.90;;
32872;SDS011;19224;52.462;16.898;2023-06-10T03:04:49;9.75;;;6.62;;
32872;SDS011;19224;52.462;16.898;2023-06-10T03:07:20;13.58;;;6.03;;
32872;SDS011;19224;52.462;16.898;2023-06-10T03:09:51;9.03;;;6.22;;
32872;SDS011;19224;52.462;16.898;2023-06-10T03:12:21;13.53;;;6.37;;
32872;SDS011;19224;52.462;16.898;2023-06-10T03:14:52;11.48;;;6.42;;
32872;SDS011;19224;52.462;16.898;2023-06-10T03:17:22;9.55;;;6.25;;
32872;SDS011;19224;52.462;16.898;2023-06-10T03:19:53;12.73;;;6.40;;
32872;SDS011;19224;52.462;16.898;2023-06-10T03:22:23;10.70;;;6.15;;
32872;SDS011;19224;52.462;16.898;2023-06-10T03:24:53;12.37;;;6.47;;
32872;SDS011;19224;52.462;16.898;2023-06-10T03:27:25;13.35;;;7.22;;
32872;SDS011;19224;52.462;16.898;2023-06-10T03:29:56;12.00;;;6.92;;
32872;SDS011;19224;52.462;16.898;2023-06-10T03:32:27;9.70;;;6.55;;
32872;SDS011;19224;52.462;16.898;2023-06-10T03:34:57;10.23;;;6.22;;
32872;SDS011;19224;52.462;16.898;2023-06-10T03:37:28;15.60;;;7.47;;
32872;SDS011;19224;52.462;16.898;2023-06-10T03:39:58;10.05;;;6.55;;
32872;SDS011;19224;52.462;16.898;2023-06-10T03:42:31;9.23;;;6.90;;
32872;SDS011;19224;52.462;16.898;2023-06-10T03:45:02;12.40;;;6.85;;
32872;SDS011;19224;52.462;16.898;2023-06-10T03:47:34;13.72;;;7.03;;
32872;SDS011;19224;52.462;16.898;2023-06-10T03:50:06;10.18;;;6.10;;
32872;SDS011;19224;52.462;16.898;2023-06-10T03:52:38;14.00;;;6.58;;
32872;SDS011;19224;52.462;16.898;2023-06-10T03:55:09;10.35;;;6.45;;
32872;SDS011;19224;52.462;16.898;2023-06-10T03:57:41;10.82;;;6.90;;
32872;SDS011;19224;52.462;16.898;2023-06-10T04:00:13;15.53;;;6.50;;
32872;SDS011;19224;52.462;16.898;2023-06-10T04:02:45;24.18;;;6.30;;
32872;SDS011;19224;52.462;16.898;2023-06-10T04:05:17;12.47;;;6.10;;
32872;SDS011;19224;52.462;16.898;2023-06-10T04:07:49;12.75;;;6.55;;
32872;SDS011;19224;52.462;16.898;2023-06-10T04:10:19;11.15;;;6.53;;
32872;SDS011;19224;52.462;16.898;2023-06-10T04:12:51;9.33;;;6.15;;
32872;SDS011;19224;52.462;16.898;2023-06-10T04:15:21;12.90;;;6.40;;
32872;SDS011;19224;52.462;16.898;2023-06-10T04:17:51;14.00;;;6.25;;
32872;SDS011;19224;52.462;16.898;2023-06-10T04:20:22;14.43;;;7.10;;
32872;SDS011;19224;52.462;16.898;2023-06-10T04:22:53;13.60;;;6.33;;
32872;SDS011;19224;52.462;16.898;2023-06-10T04:25:23;11.28;;;6.55;;
32872;SDS011;19224;52.462;16.898;2023-06-10T04:27:54;13.32;;;6.30;;
32872;SDS011;19224;52.462;16.898;2023-06-10T04:30:24;11.63;;;6.40;;
32872;SDS011;19224;52.462;16.898;2023-06-10T04:32:55;10.10;;;6.20;;
32872;SDS011;19224;52.462;16.898;2023-06-10T04:35:25;12.18;;;6.08;;
32872;SDS011;19224;52.462;16.898;2023-06-10T04:37:56;11.68;;;6.10;;
32872;SDS011;19224;52.462;16.898;2023-06-10T04:40:27;14.95;;;5.97;;
32872;SDS011;19224;52.462;16.898;2023-06-10T04:42:58;11.73;;;6.37;;
32872;SDS011;19224;52.462;16.898;2023-06-10T04:45:28;14.23;;;6.17;;
32872;SDS011;19224;52.462;16.898;2023-06-10T04:47:58;10.32;;;6.47;;
32872;SDS011;19224;52.462;16.898;2023-06-10T04:50:29;8.75;;;5.75;;
32872;SDS011;19224;52.462;16.898;2023-06-10T04:53:01;9.48;;;5.87;;
32872;SDS011;19224;52.462;16.898;2023-06-10T04:55:32;10.08;;;5.85;;
32872;SDS011;19224;52.462;16.898;2023-06-10T04:58:02;12.00;;;5.80;;
32872;SDS011;19224;52.462;16.898;2023-06-10T05:00:33;15.15;;;5.92;;
32872;SDS011;19224;52.462;16.898;2023-06-10T05:03:03;14.23;;;5.60;;
32872;SDS011;19224;52.462;16.898;2023-06-10T05:05:33;7.85;;;5.80;;
32872;SDS011;19224;52.462;16.898;2023-06-10T05:08:04;11.85;;;5.53;;
32872;SDS011;19224;52.462;16.898;2023-06-10T05:10:34;11.30;;;6.35;;
32872;SDS011;19224;52.462;16.898;2023-06-10T05:13:04;9.00;;;5.75;;
32872;SDS011;19224;52.462;16.898;2023-06-10T05:15:35;11.10;;;5.50;;
32872;SDS011;19224;52.462;16.898;2023-06-10T05:18:05;9.48;;;5.22;;
32872;SDS011;19224;52.462;16.898;2023-06-10T05:20:36;16.27;;;5.60;;
32872;SDS011;19224;52.462;16.898;2023-06-10T05:23:07;13.28;;;5.42;;
32872;SDS011;19224;52.462;16.898;2023-06-10T05:25:37;18.98;;;5.92;;
32872;SDS011;19224;52.462;16.898;2023-06-10T05:28:07;14.38;;;5.83;;
32872;SDS011;19224;52.462;16.898;2023-06-10T05:30:39;14.43;;;5.85;;
32872;SDS011;19224;52.462;16.898;2023-06-10T05:33:09;11.28;;;5.25;;
32872;SDS011;19224;52.462;16.898;2023-06-10T05:35:40;9.78;;;5.42;;
32872;SDS011;19224;52.462;16.898;2023-06-10T05:38:10;16.25;;;5.45;;
32872;SDS011;19224;52.462;16.898;2023-06-10T05:40:40;23.45;;;5.85;;
32872;SDS011;19224;52.462;16.898;2023-06-10T05:43:11;18.37;;;5.97;;
32872;SDS011;19224;52.462;16.898;2023-06-10T05:45:41;14.68;;;5.25;;
32872;SDS011;19224;52.462;16.898;2023-06-10T05:48:12;12.10;;;4.87;;
32872;SDS011;19224;52.462;16.898;2023-06-10T05:50:43;15.23;;;5.33;;
32872;SDS011;19224;52.462;16.898;2023-06-10T05:53:15;18.62;;;5.62;;
32872;SDS011;19224;52.462;16.898;2023-06-10T05:55:46;20.23;;;5.78;;
32872;SDS011;19224;52.462;16.898;2023-06-10T05:58:16;14.30;;;5.80;;
32872;SDS011;19224;52.462;16.898;2023-06-10T06:00:47;13.08;;;4.87;;
32872;SDS011;19224;52.462;16.898;2023-06-10T06:03:17;16.00;;;5.83;;
32872;SDS011;19224;52.462;16.898;2023-06-10T06:05:48;16.45;;;5.62;;
32872;SDS011;19224;52.462;16.898;2023-06-10T06:08:18;13.50;;;5.70;;
32872;SDS011;19224;52.462;16.898;2023-06-10T06:10:48;11.08;;;5.25;;
32872;SDS011;19224;52.462;16.898;2023-06-10T06:13:19;9.48;;;4.90;;
32872;SDS011;19224;52.462;16.898;2023-06-10T06:15:49;12.35;;;5.40;;
32872;SDS011;19224;52.462;16.898;2023-06-10T06:18:20;17.77;;;5.87;;
32872;SDS011;19224;52.462;16.898;2023-06-10T06:20:51;14.78;;;5.42;;
32872;SDS011;19224;52.462;16.898;2023-06-10T06:23:21;15.75;;;5.55;;
32872;SDS011;19224;52.462;16.898;2023-06-10T06:25:51;11.97;;;5.12;;
32872;SDS011;19224;52.462;16.898;2023-06-10T06:28:21;13.40;;;5.25;;
32872;SDS011;19224;52.462;16.898;2023-06-10T06:30:53;11.68;;;5.47;;
32872;SDS011;19224;52.462;16.898;2023-06-10T06:33:26;10.45;;;4.50;;
32872;SDS011;19224;52.462;16.898;2023-06-10T06:35:57;21.42;;;5.75;;
32872;SDS011;19224;52.462;16.898;2023-06-10T06:38:28;8.63;;;4.65;;
32872;SDS011;19224;52.462;16.898;2023-06-10T06:40:59;10.60;;;4.75;;
32872;SDS011;19224;52.462;16.898;2023-06-10T06:43:31;10.55;;;5.03;;
32872;SDS011;19224;52.462;16.898;2023-06-10T06:46:01;13.75;;;5.15;;
32872;SDS011;19224;52.462;16.898;2023-06-10T06:48:31;11.10;;;5.00;;
32872;SDS011;19224;52.462;16.898;2023-06-10T06:51:02;17.65;;;5.42;;
32872;SDS011;19224;52.462;16.898;2023-06-10T06:53:33;9.65;;;5.12;;
32872;SDS011;19224;52.462;16.898;2023-06-10T06:56:04;13.20;;;5.03;;
32872;SDS011;19224;52.462;16.898;2023-06-10T06:58:34;11.55;;;4.55;;
32872;SDS011;19224;52.462;16.898;2023-06-10T07:01:04;14.45;;;5.65;;
32872;SDS011;19224;52.462;16.898;2023-06-10T07:03:35;8.75;;;5.33;;
32872;SDS011;19224;52.462;16.898;2023-06-10T07:06:05;12.30;;;5.37;;
32872;SDS011;19224;52.462;16.898;2023-06-10T07:08:35;13.85;;;4.85;;
32872;SDS011;19224;52.462;16.898;2023-06-10T07:11:06;11.95;;;5.20;;
32872;SDS011;19224;52.462;16.898;2023-06-10T07:13:36;14.53;;;5.45;;
32872;SDS011;19224;52.462;16.898;2023-06-10T07:16:06;21.50;;;5.53;;
32872;SDS011;19224;52.462;16.898;2023-06-10T07:18:37;15.03;;;5.40;;
32872;SDS011;19224;52.462;16.898;2023-06-10T07:21:07;9.28;;;4.83;;
32872;SDS011;19224;52.462;16.898;2023-06-10T07:23:37;9.28;;;5.05;;
32872;SDS011;19224;52.462;16.898;2023-06-10T07:26:12;13.18;;;5.05;;
32872;SDS011;19224;52.462;16.898;2023-06-10T07:28:43;10.58;;;5.25;;
32872;SDS011;19224;52.462;16.898;2023-06-10T07:31:14;13.53;;;6.22;;
32872;SDS011;19224;52.462;16.898;2023-06-10T07:33:44;9.95;;;5.95;;
32872;SDS011;19224;52.462;16.898;2023-06-10T07:36:16;15.45;;;6.15;;
32872;SDS011;19224;52.462;16.898;2023-06-10T07:38:46;10.90;;;5.22;;
32872;SDS011;19224;52.462;16.898;2023-06-10T07:41:17;17.82;;;6.47;;
32872;SDS011;19224;52.462;16.898;2023-06-10T07:43:48;14.65;;;5.65;;
32872;SDS011;19224;52.462;16.898;2023-06-10T07:46:20;17.02;;;5.55;;
32872;SDS011;19224;52.462;16.898;2023-06-10T07:48:53;13.40;;;5.72;;
32872;SDS011;19224;52.462;16.898;2023-06-10T07:51:23;19.07;;;6.45;;
32872;SDS011;19224;52.462;16.898;2023-06-10T07:53:54;7.90;;;5.22;;
32872;SDS011;19224;52.462;16.898;2023-06-10T07:56:24;12.75;;;5.50;;
32872;SDS011;19224;52.462;16.898;2023-06-10T07:58:54;13.48;;;5.20;;
32872;SDS011;19224;52.462;16.898;2023-06-10T08:01:24;8.20;;;4.67;;
32872;SDS011;19224;52.462;16.898;2023-06-10T08:03:55;15.13;;;4.75;;
32872;SDS011;19224;52.462;16.898;2023-06-10T08:06:25;13.65;;;4.65;;
32872;SDS011;19224;52.462;16.898;2023-06-10T08:08:55;12.10;;;4.92;;
32872;SDS011;19224;52.462;16.898;2023-06-10T08:11:27;7.67;;;4.70;;
32872;SDS011;19224;52.462;16.898;2023-06-10T08:13:58;9.75;;;4.33;;
32872;SDS011;19224;52.462;16.898;2023-06-10T08:16:28;14.80;;;4.55;;
32872;SDS011;19224;52.462;16.898;2023-06-10T08:18:59;7.33;;;4.22;;
32872;SDS011;19224;52.462;16.898;2023-06-10T08:21:29;10.32;;;5.12;;
32872;SDS011;19224;52.462;16.898;2023-06-10T08:23:59;16.10;;;4.90;;
32872;SDS011;19224;52.462;16.898;2023-06-10T08:26:29;10.63;;;4.47;;
32872;SDS011;19224;52.462;16.898;2023-06-10T08:28:59;11.60;;;4.50;;
32872;SDS011;19224;52.462;16.898;2023-06-10T08:31:30;12.35;;;4.75;;
32872;SDS011;19224;52.462;16.898;2023-06-10T08:34:01;11.78;;;4.10;;
32872;SDS011;19224;52.462;16.898;2023-06-10T08:36:31;8.15;;;4.20;;
32872;SDS011;19224;52.462;16.898;2023-06-10T08:39:02;9.68;;;4.90;;
32872;SDS011;19224;52.462;16.898;2023-06-10T08:41:35;19.30;;;4.72;;
32872;SDS011;19224;52.462;16.898;2023-06-10T08:44:10;12.05;;;4.45;;
32872;SDS011;19224;52.462;16.898;2023-06-10T08:46:53;8.90;;;4.72;;
32872;SDS011;19224;52.462;16.898;2023-06-10T08:49:30;9.25;;;5.05;;
32872;SDS011;19224;52.462;16.898;2023-06-10T08:52:02;17.57;;;5.70;;
32872;SDS011;19224;52.462;16.898;2023-06-10T08:54:35;9.73;;;4.92;;
32872;SDS011;19224;52.462;16.898;2023-06-10T08:57:07;12.40;;;5.37;;
32872;SDS011;19224;52.462;16.898;2023-06-10T08:59:37;10.03;;;5.17;;
32872;SDS011;19224;52.462;16.898;2023-06-10T09:02:09;7.85;;;4.90;;
32872;SDS011;19224;52.462;16.898;2023-06-10T09:04:42;14.58;;;5.05;;
32872;SDS011;19224;52.462;16.898;2023-06-10T09:07:14;12.73;;;4.58;;
32872;SDS011;19224;52.462;16.898;2023-06-10T09:09:45;11.43;;;4.55;;
32872;SDS011;19224;52.462;16.898;2023-06-10T09:12:18;7.30;;;4.60;;
32872;SDS011;19224;52.462;16.898;2023-06-10T09:14:48;11.08;;;4.10;;
32872;SDS011;19224;52.462;16.898;2023-06-10T09:17:19;12.80;;;4.62;;
32872;SDS011;19224;52.462;16.898;2023-06-10T09:19:49;19.15;;;4.92;;
32872;SDS011;19224;52.462;16.898;2023-06-10T09:22:23;17.35;;;4.67;;
32872;SDS011;19224;52.462;16.898;2023-06-10T09:25:11;10.08;;;4.15;;
32872;SDS011;19224;52.462;16.898;2023-06-10T09:27:46;12.20;;;6.65;;
32872;SDS011;19224;52.462;16.898;2023-06-10T09:33:00;13.38;;;4.92;;
32872;SDS011;19224;52.462;16.898;2023-06-10T09:35:33;12.85;;;4.22;;
32872;SDS011;19224;52.462;16.898;2023-06-10T09:38:03;8.25;;;4.47;;
32872;SDS011;19224;52.462;16.898;2023-06-10T09:40:33;12.88;;;4.70;;
32872;SDS011;19224;52.462;16.898;2023-06-10T09:43:23;6.90;;;4.25;;
32872;SDS011;19224;52.462;16.898;2023-06-10T09:46:14;6.75;;;4.20;;
32872;SDS011;19224;52.462;16.898;2023-06-10T09:48:48;14.33;;;5.33;;
32872;SDS011;19224;52.462;16.898;2023-06-10T09:51:19;11.88;;;4.83;;
32872;SDS011;19224;52.462;16.898;2023-06-10T09:53:51;10.20;;;4.95;;
32872;SDS011;19224;52.462;16.898;2023-06-10T09:56:31;10.08;;;4.65;;
32872;SDS011;19224;52.462;16.898;2023-06-10T09:59:04;8.55;;;4.95;;
32872;SDS011;19224;52.462;16.898;2023-06-10T10:01:35;23.42;;;5.12;;
32872;SDS011;19224;52.462;16.898;2023-06-10T10:04:05;6.55;;;4.87;;
32872;SDS011;19224;52.462;16.898;2023-06-10T10:06:36;6.67;;;4.03;;
32872;SDS011;19224;52.462;16.898;2023-06-10T10:09:07;7.25;;;4.75;;
32872;SDS011;19224;52.462;16.898;2023-06-10T10:11:37;23.02;;;8.33;;
32872;SDS011;19224;52.462;16.898;2023-06-10T10:14:09;8.63;;;4.37;;
32872;SDS011;19224;52.462;16.898;2023-06-10T10:16:42;12.58;;;5.03;;
32872;SDS011;19224;52.462;16.898;2023-06-10T10:19:18;11.70;;;4.50;;
32872;SDS011;19224;52.462;16.898;2023-06-10T10:22:04;10.03;;;5.33;;
32872;SDS011;19224;52.462;16.898;2023-06-10T10:24:46;12.58;;;5.37;;
32872;SDS011;19224;52.462;16.898;2023-06-10T10:27:21;8.23;;;5.80;;
32872;SDS011;19224;52.462;16.898;2023-06-10T10:30:15;7.65;;;4.60;;
32872;SDS011;19224;52.462;16.898;2023-06-10T10:33:04;9.55;;;4.37;;
32872;SDS011;19224;52.462;16.898;2023-06-10T10:35:46;5.70;;;4.42;;
32872;SDS011;19224;52.462;16.898;2023-06-10T10:38:17;14.15;;;5.60;;
32872;SDS011;19224;52.462;16.898;2023-06-10T10:40:48;11.12;;;4.40;;
32872;SDS011;19224;52.462;16.898;2023-06-10T10:43:19;13.15;;;4.30;;
32872;SDS011;19224;52.462;16.898;2023-06-10T10:46:03;20.35;;;5.28;;
32872;SDS011;19224;52.462;16.898;2023-06-10T10:48:37;12.33;;;5.00;;
32872;SDS011;19224;52.462;16.898;2023-06-10T10:51:09;8.83;;;4.45;;
32872;SDS011;19224;52.462;16.898;2023-06-10T10:53:40;6.67;;;4.45;;
32872;SDS011;19224;52.462;16.898;2023-06-10T10:56:13;8.18;;;4.65;;
32872;SDS011;19224;52.462;16.898;2023-06-10T11:01:41;9.70;;;4.33;;
32872;SDS011;19224;52.462;16.898;2023-06-10T11:04:14;8.40;;;4.65;;
32872;SDS011;19224;52.462;16.898;2023-06-10T11:06:53;7.90;;;4.80;;
32872;SDS011;19224;52.462;16.898;2023-06-10T11:09:25;8.05;;;3.90;;
32872;SDS011;19224;52.462;16.898;2023-06-10T11:11:58;6.45;;;3.77;;
32872;SDS011;19224;52.462;16.898;2023-06-10T11:14:29;12.03;;;4.62;;
32872;SDS011;19224;52.462;16.898;2023-06-10T11:17:03;15.15;;;4.75;;
32872;SDS011;19224;52.462;16.898;2023-06-10T11:19:37;11.93;;;4.92;;
32872;SDS011;19224;52.462;16.898;2023-06-10T11:22:09;8.75;;;4.42;;
32872;SDS011;19224;52.462;16.898;2023-06-10T11:24:49;6.53;;;4.45;;
32872;SDS011;19224;52.462;16.898;2023-06-10T11:27:21;6.25;;;4.08;;
32872;SDS011;19224;52.462;16.898;2023-06-10T11:32:37;12.20;;;4.12;;
32872;SDS011;19224;52.462;16.898;2023-06-10T11:35:09;16.02;;;4.97;;
32872;SDS011;19224;52.462;16.898;2023-06-10T11:37:40;11.33;;;4.58;;
32872;SDS011;19224;52.462;16.898;2023-06-10T11:40:11;9.78;;;4.55;;
32872;SDS011;19224;52.462;16.898;2023-06-10T11:42:42;9.93;;;4.60;;
32872;SDS011;19224;52.462;16.898;2023-06-10T11:45:20;7.15;;;4.62;;
32872;SDS011;19224;52.462;16.898;2023-06-10T11:47:57;15.78;;;4.75;;
32872;SDS011;19224;52.462;16.898;2023-06-10T11:50:29;6.45;;;4.45;;
32872;SDS011;19224;52.462;16.898;2023-06-10T11:53:02;13.55;;;4.22;;
32872;SDS011;19224;52.462;16.898;2023-06-10T11:55:44;7.03;;;4.10;;
32872;SDS011;19224;52.462;16.898;2023-06-10T11:58:14;10.10;;;3.90;;
32872;SDS011;19224;52.462;16.898;2023-06-10T12:00:49;6.50;;;4.03;;
32872;SDS011;19224;52.462;16.898;2023-06-10T12:03:24;7.95;;;3.87;;
32872;SDS011;19224;52.462;16.898;2023-06-10T12:06:02;9.58;;;4.53;;
32872;SDS011;19224;52.462;16.898;2023-06-10T12:08:34;9.83;;;4.17;;
32872;SDS011;19224;52.462;16.898;2023-06-10T12:11:11;6.53;;;4.10;;
32872;SDS011;19224;52.462;16.898;2023-06-10T12:13:48;9.58;;;4.08;;
32872;SDS011;19224;52.462;16.898;2023-06-10T12:16:19;8.00;;;4.47;;
32872;SDS011;19224;52.462;16.898;2023-06-10T12:18:50;6.67;;;4.05;;
32872;SDS011;19224;52.462;16.898;2023-06-10T12:21:24;11.28;;;5.00;;
32872;SDS011;19224;52.462;16.898;2023-06-10T12:24:07;8.45;;;3.80;;
32872;SDS011;19224;52.462;16.898;2023-06-10T12:26:40;8.83;;;3.52;;
32872;SDS011;19224;52.462;16.898;2023-06-10T12:31:52;9.00;;;4.50;;
32872;SDS011;19224;52.462;16.898;2023-06-10T12:34:29;11.10;;;4.03;;
32872;SDS011;19224;52.462;16.898;2023-06-10T12:37:04;6.62;;;3.90;;
32872;SDS011;19224;52.462;16.898;2023-06-10T12:39:36;11.55;;;4.22;;
32872;SDS011;19224;52.462;16.898;2023-06-10T12:42:08;6.12;;;4.10;;
32872;SDS011;19224;52.462;16.898;2023-06-10T12:44:39;6.95;;;3.80;;
32872;SDS011;19224;52.462;16.898;2023-06-10T12:47:10;8.43;;;4.00;;
32872;SDS011;19224;52.462;16.898;2023-06-10T12:49:42;7.05;;;3.67;;
32872;SDS011;19224;52.462;16.898;2023-06-10T12:52:12;9.20;;;4.17;;
32872;SDS011;19224;52.462;16.898;2023-06-10T12:54:42;10.53;;;6.05;;
32872;SDS011;19224;52.462;16.898;2023-06-10T12:57:13;8.78;;;4.00;;
32872;SDS011;19224;52.462;16.898;2023-06-10T12:59:44;7.33;;;4.08;;
32872;SDS011;19224;52.462;16.898;2023-06-10T13:02:16;6.22;;;3.62;;
32872;SDS011;19224;52.462;16.898;2023-06-10T13:04:48;7.62;;;3.95;;
32872;SDS011;19224;52.462;16.898;2023-06-10T13:07:19;6.65;;;4.20;;
32872;SDS011;19224;52.462;16.898;2023-06-10T13:09:50;11.50;;;3.90;;
32872;SDS011;19224;52.462;16.898;2023-06-10T13:12:21;12.37;;;3.83;;
32872;SDS011;19224;52.462;16.898;2023-06-10T13:14:52;4.58;;;3.62;;
32872;SDS011;19224;52.462;16.898;2023-06-10T13:17:23;10.95;;;3.80;;
32872;SDS011;19224;52.462;16.898;2023-06-10T13:19:53;7.92;;;3.62;;
32872;SDS011;19224;52.462;16.898;2023-06-10T13:22:24;15.43;;;4.28;;
32872;SDS011;19224;52.462;16.898;2023-06-10T13:24:56;5.97;;;3.62;;
32872;SDS011;19224;52.462;16.898;2023-06-10T13:27:28;7.97;;;3.87;;
32872;SDS011;19224;52.462;16.898;2023-06-10T13:29:59;9.55;;;3.80;;
32872;SDS011;19224;52.462;16.898;2023-06-10T13:32:30;4.12;;;3.00;;
32872;SDS011;19224;52.462;16.898;2023-06-10T13:35:00;11.35;;;4.08;;
32872;SDS011;19224;52.462;16.898;2023-06-10T13:37:31;10.13;;;3.40;;
32872;SDS011;19224;52.462;16.898;2023-06-10T13:40:02;12.78;;;3.87;;
32872;SDS011;19224;52.462;16.898;2023-06-10T13:42:33;11.93;;;3.50;;
32872;SDS011;19224;52.462;16.898;2023-06-10T13:45:06;17.52;;;3.90;;
32872;SDS011;19224;52.462;16.898;2023-06-10T13:47:37;8.53;;;3.98;;
32872;SDS011;19224;52.462;16.898;2023-06-10T13:50:09;14.78;;;3.83;;
32872;SDS011;19224;52.462;16.898;2023-06-10T13:52:40;11.05;;;3.62;;
32872;SDS011;19224;52.462;16.898;2023-06-10T13:55:11;9.58;;;3.60;;
32872;SDS011;19224;52.462;16.898;2023-06-10T13:57:41;8.50;;;3.40;;
32872;SDS011;19224;52.462;16.898;2023-06-10T14:00:12;5.28;;;3.50;;
32872;SDS011;19224;52.462;16.898;2023-06-10T14:02:43;12.82;;;3.77;;
32872;SDS011;19224;52.462;16.898;2023-06-10T14:05:14;26.35;;;4.42;;
32872;SDS011;19224;52.462;16.898;2023-06-10T14:07:44;11.08;;;3.80;;
32872;SDS011;19224;52.462;16.898;2023-06-10T14:10:15;4.95;;;2.90;;
32872;SDS011;19224;52.462;16.898;2023-06-10T14:12:45;7.33;;;3.30;;
32872;SDS011;19224;52.462;16.898;2023-06-10T14:15:15;12.10;;;4.05;;
32872;SDS011;19224;52.462;16.898;2023-06-10T14:17:46;11.75;;;3.45;;
32872;SDS011;19224;52.462;16.898;2023-06-10T14:20:16;7.50;;;3.20;;
32872;SDS011;19224;52.462;16.898;2023-06-10T14:22:46;8.90;;;3.75;;
32872;SDS011;19224;52.462;16.898;2023-06-10T14:25:16;9.48;;;3.80;;
32872;SDS011;19224;52.462;16.898;2023-06-10T14:27:47;11.80;;;3.70;;
32872;SDS011;19224;52.462;16.898;2023-06-10T14:30:17;8.78;;;3.60;;
32872;SDS011;19224;52.462;16.898;2023-06-10T14:32:47;8.50;;;3.50;;
32872;SDS011;19224;52.462;16.898;2023-06-10T14:35:18;12.75;;;3.55;;
32872;SDS011;19224;52.462;16.898;2023-06-10T14:37:49;8.05;;;3.20;;
32872;SDS011;19224;52.462;16.898;2023-06-10T14:40:19;6.10;;;3.10;;
32872;SDS011;19224;52.462;16.898;2023-06-10T14:42:50;7.72;;;3.10;;
32872;SDS011;19224;52.462;16.898;2023-06-10T14:45:20;15.43;;;3.52;;
32872;SDS011;19224;52.462;16.898;2023-06-10T14:47:52;5.42;;;3.30;;
32872;SDS011;19224;52.462;16.898;2023-06-10T14:50:23;7.03;;;3.00;;
32872;SDS011;19224;52.462;16.898;2023-06-10T14:52:53;5.35;;;3.27;;
32872;SDS011;19224;52.462;16.898;2023-06-10T14:55:23;8.30;;;3.20;;
32872;SDS011;19224;52.462;16.898;2023-06-10T14:57:54;13.40;;;3.98;;
32872;SDS011;19224;52.462;16.898;2023-06-10T15:00:26;5.58;;;2.85;;
32872;SDS011;19224;52.462;16.898;2023-06-10T15:02:56;5.90;;;3.00;;
32872;SDS011;19224;52.462;16.898;2023-06-10T15:05:27;11.35;;;3.30;;
32872;SDS011;19224;52.462;16.898;2023-06-10T15:07:57;12.33;;;3.77;;
32872;SDS011;19224;52.462;16.898;2023-06-10T15:10:28;5.87;;;2.92;;